Hlavní strana
METAR-TAF:

METAR-TAF

Letiště :

Letiště Čáslav

Čáslav, Česká republika

zeměpisná šířka: 49-56-23N, zeměpisná délka: 15-22-55E, výška: 242 m

Aktuální stav počasí

Zpráva byla vytvořena před 19 minutami, v 10:00 UTC
vítr z různých směrů 5 kt
Teplota 27°C
Vlhkost vzduchu 45%
Tlak 1019 hPa
Viditelnost 10 km a více
Žádná oblačnost pod 1500 m, nevyskytují se cumulonimby.

METAR: LKCV 181000Z VRB05KT CAVOK 27/14 Q1019 NOSIG RMK BLU BLU

Čas: 12:19 (10:19 UTC)

Předpověď počasí

Zpráva byla vytvořena před 5 hodinami a 19 minutami, v 05:00 UTC
Předpověď platná od 18 v 06 UTC do 19 v 06 UTC
vítr z různých směrů 2 kt
Viditelnost 10 km a více
Žádná oblačnost pod 1500 m, nevyskytují se cumulonimby.
Dočasný
od 18 v 11 UTC do 18 v 22 UTC
Severoseverovýchodní vítr 8 kt

TAF: LKCV 180500Z 1806/1906 VRB02KT CAVOK TEMPO 1811/1822 03008KT

Stav a předpovědi počasí z více než 4 000 letišť (zprávy METAR a TAF).

Červené a žluté tečky na mapě představují dostupné meteorologické stanice.

Když kurzor umístíte na tečku, zobrazí se název stanice.

Pak kliknutím zobrazíte stav a předpověď počasí.

Chcete-li změnit mapu, kliknutím na zelené tlačítko se znaménkem +mapu přiblížíte, kliknutím na zelené tlačítko se znaménkem – mapu oddálíte a kliknutím na zelené šipky přejdete na sousední mapy.


METAR-TAF: